sensor_id;sensor_type;location;lat;lon;timestamp;temperature;humidity
25504;DHT22;13410;52.114;5.718;2023-01-19T00:02:20;7.10;99.90
25504;DHT22;13410;52.114;5.718;2023-01-19T00:04:45;7.10;99.90
25504;DHT22;13410;52.114;5.718;2023-01-19T00:07:11;7.00;99.90
25504;DHT22;13410;52.114;5.718;2023-01-19T00:09:36;7.00;99.90
25504;DHT22;13410;52.114;5.718;2023-01-19T00:12:10;7.10;99.90
25504;DHT22;13410;52.114;5.718;2023-01-19T00:14:36;7.00;99.90
25504;DHT22;13410;52.114;5.718;2023-01-19T00:17:01;7.20;99.90
25504;DHT22;13410;52.114;5.718;2023-01-19T00:19:27;7.20;99.90
25504;DHT22;13410;52.114;5.718;2023-01-19T00:21:53;7.10;99.90
25504;DHT22;13410;52.114;5.718;2023-01-19T00:24:19;7.00;99.90
25504;DHT22;13410;52.114;5.718;2023-01-19T00:26:45;7.00;99.90
25504;DHT22;13410;52.114;5.718;2023-01-19T00:29:11;7.10;99.90
25504;DHT22;13410;52.114;5.718;2023-01-19T00:31:37;7.20;99.90
25504;DHT22;13410;52.114;5.718;2023-01-19T00:34:04;7.20;99.90
25504;DHT22;13410;52.114;5.718;2023-01-19T00:36:30;7.20;99.90
25504;DHT22;13410;52.114;5.718;2023-01-19T00:38:56;7.40;99.90
25504;DHT22;13410;52.114;5.718;2023-01-19T00:41:21;7.40;99.90
25504;DHT22;13410;52.114;5.718;2023-01-19T00:44:07;7.30;99.90
25504;DHT22;13410;52.114;5.718;2023-01-19T00:46:32;7.20;99.90
25504;DHT22;13410;52.114;5.718;2023-01-19T00:48:58;7.30;99.90
25504;DHT22;13410;52.114;5.718;2023-01-19T00:51:24;7.20;99.90
25504;DHT22;13410;52.114;5.718;2023-01-19T00:53:49;7.30;99.90
25504;DHT22;13410;52.114;5.718;2023-01-19T00:56:15;7.40;99.90
25504;DHT22;13410;52.114;5.718;2023-01-19T00:58:41;7.40;99.90
25504;DHT22;13410;52.114;5.718;2023-01-19T01:01:07;7.50;99.90
25504;DHT22;13410;52.114;5.718;2023-01-19T01:03:33;7.30;99.90
25504;DHT22;13410;52.114;5.718;2023-01-19T01:05:58;7.40;99.90
25504;DHT22;13410;52.114;5.718;2023-01-19T01:08:24;7.30;99.90
25504;DHT22;13410;52.114;5.718;2023-01-19T01:10:50;7.10;99.90
25504;DHT22;13410;52.114;5.718;2023-01-19T01:13:16;7.20;99.90
25504;DHT22;13410;52.114;5.718;2023-01-19T01:15:42;7.10;99.90
25504;DHT22;13410;52.114;5.718;2023-01-19T01:18:07;7.20;99.90
25504;DHT22;13410;52.114;5.718;2023-01-19T01:20:33;7.30;99.90
25504;DHT22;13410;52.114;5.718;2023-01-19T01:23:01;7.40;99.90
25504;DHT22;13410;52.114;5.718;2023-01-19T01:25:27;7.20;99.90
25504;DHT22;13410;52.114;5.718;2023-01-19T01:27:53;7.00;99.90
25504;DHT22;13410;52.114;5.718;2023-01-19T01:30:19;7.10;99.90
25504;DHT22;13410;52.114;5.718;2023-01-19T01:32:45;7.10;99.90
25504;DHT22;13410;52.114;5.718;2023-01-19T01:35:12;6.90;99.90
25504;DHT22;13410;52.114;5.718;2023-01-19T01:37:39;6.90;99.90
25504;DHT22;13410;52.114;5.718;2023-01-19T01:40:05;6.80;99.90
25504;DHT22;13410;52.114;5.718;2023-01-19T01:42:32;6.80;99.90
25504;DHT22;13410;52.114;5.718;2023-01-19T01:45:00;6.80;99.90
25504;DHT22;13410;52.114;5.718;2023-01-19T01:47:40;6.80;99.90
25504;DHT22;13410;52.114;5.718;2023-01-19T01:50:07;6.90;99.90
25504;DHT22;13410;52.114;5.718;2023-01-19T01:52:39;6.80;99.90
25504;DHT22;13410;52.114;5.718;2023-01-19T01:55:07;6.80;99.90
25504;DHT22;13410;52.114;5.718;2023-01-19T01:57:35;6.70;99.90
25504;DHT22;13410;52.114;5.718;2023-01-19T02:00:03;6.80;99.90
25504;DHT22;13410;52.114;5.718;2023-01-19T02:02:31;6.70;99.90
25504;DHT22;13410;52.114;5.718;2023-01-19T02:05:32;6.50;99.90
25504;DHT22;13410;52.114;5.718;2023-01-19T02:08:11;6.70;99.90
25504;DHT22;13410;52.114;5.718;2023-01-19T02:10:58;6.70;99.90
25504;DHT22;13410;52.114;5.718;2023-01-19T02:13:43;6.60;99.90
25504;DHT22;13410;52.114;5.718;2023-01-19T02:16:11;6.60;99.90
25504;DHT22;13410;52.114;5.718;2023-01-19T02:18:38;6.80;99.90
25504;DHT22;13410;52.114;5.718;2023-01-19T02:23:54;6.60;99.90
25504;DHT22;13410;52.114;5.718;2023-01-19T02:26:23;6.50;99.90
25504;DHT22;13410;52.114;5.718;2023-01-19T02:28:53;6.40;99.90
25504;DHT22;13410;52.114;5.718;2023-01-19T02:31:22;6.30;99.90
25504;DHT22;13410;52.114;5.718;2023-01-19T02:33:48;6.30;99.90
25504;DHT22;13410;52.114;5.718;2023-01-19T02:36:15;6.40;99.90
25504;DHT22;13410;52.114;5.718;2023-01-19T02:38:43;6.50;99.90
25504;DHT22;13410;52.114;5.718;2023-01-19T02:41:14;6.60;99.90
25504;DHT22;13410;52.114;5.718;2023-01-19T02:43:41;6.60;99.90
25504;DHT22;13410;52.114;5.718;2023-01-19T02:46:07;6.60;99.90
25504;DHT22;13410;52.114;5.718;2023-01-19T02:48:33;6.60;99.90
25504;DHT22;13410;52.114;5.718;2023-01-19T02:50:59;6.70;99.90
25504;DHT22;13410;52.114;5.718;2023-01-19T02:53:34;6.70;99.90
25504;DHT22;13410;52.114;5.718;2023-01-19T02:58:48;6.70;99.90
25504;DHT22;13410;52.114;5.718;2023-01-19T03:01:22;6.90;99.90
25504;DHT22;13410;52.114;5.718;2023-01-19T03:04:06;7.00;99.90
25504;DHT22;13410;52.114;5.718;2023-01-19T03:06:43;6.90;99.90
25504;DHT22;13410;52.114;5.718;2023-01-19T03:09:48;7.00;99.90
25504;DHT22;13410;52.114;5.718;2023-01-19T03:14:42;7.10;99.90
25504;DHT22;13410;52.114;5.718;2023-01-19T03:17:10;7.10;99.90
25504;DHT22;13410;52.114;5.718;2023-01-19T03:19:40;7.10;99.90
25504;DHT22;13410;52.114;5.718;2023-01-19T03:22:15;7.10;99.90
25504;DHT22;13410;52.114;5.718;2023-01-19T03:24:44;7.20;99.90
25504;DHT22;13410;52.114;5.718;2023-01-19T03:27:25;7.20;99.90
25504;DHT22;13410;52.114;5.718;2023-01-19T03:29:54;7.30;99.90
25504;DHT22;13410;52.114;5.718;2023-01-19T03:32:27;7.30;99.90
25504;DHT22;13410;52.114;5.718;2023-01-19T03:34:58;7.50;99.90
25504;DHT22;13410;52.114;5.718;2023-01-19T03:37:26;7.60;99.90
25504;DHT22;13410;52.114;5.718;2023-01-19T03:39:53;7.50;99.90
25504;DHT22;13410;52.114;5.718;2023-01-19T03:42:19;7.60;99.90
25504;DHT22;13410;52.114;5.718;2023-01-19T03:44:45;7.60;99.90
25504;DHT22;13410;52.114;5.718;2023-01-19T03:47:14;7.70;99.90
25504;DHT22;13410;52.114;5.718;2023-01-19T03:49:43;7.60;99.90
25504;DHT22;13410;52.114;5.718;2023-01-19T03:52:10;7.60;99.90
25504;DHT22;13410;52.114;5.718;2023-01-19T03:54:36;7.40;99.90
25504;DHT22;13410;52.114;5.718;2023-01-19T03:57:01;7.30;99.90
25504;DHT22;13410;52.114;5.718;2023-01-19T03:59:27;7.40;99.90
25504;DHT22;13410;52.114;5.718;2023-01-19T04:01:52;7.60;99.90
25504;DHT22;13410;52.114;5.718;2023-01-19T04:04:18;7.60;99.90
25504;DHT22;13410;52.114;5.718;2023-01-19T04:06:43;7.70;99.90
25504;DHT22;13410;52.114;5.718;2023-01-19T04:09:09;7.90;99.90
25504;DHT22;13410;52.114;5.718;2023-01-19T04:11:35;8.10;99.90
25504;DHT22;13410;52.114;5.718;2023-01-19T04:14:00;8.10;99.90
25504;DHT22;13410;52.114;5.718;2023-01-19T04:16:26;8.10;99.90
25504;DHT22;13410;52.114;5.718;2023-01-19T04:18:52;8.20;99.90
25504;DHT22;13410;52.114;5.718;2023-01-19T04:21:17;8.20;99.90
25504;DHT22;13410;52.114;5.718;2023-01-19T04:23:45;8.10;99.90
25504;DHT22;13410;52.114;5.718;2023-01-19T04:26:10;8.20;99.90
25504;DHT22;13410;52.114;5.718;2023-01-19T04:28:36;8.00;99.90
25504;DHT22;13410;52.114;5.718;2023-01-19T04:31:03;8.00;99.90
25504;DHT22;13410;52.114;5.718;2023-01-19T04:33:29;7.90;99.90
25504;DHT22;13410;52.114;5.718;2023-01-19T04:35:55;7.80;99.90
25504;DHT22;13410;52.114;5.718;2023-01-19T04:38:21;7.80;99.90
25504;DHT22;13410;52.114;5.718;2023-01-19T04:40:48;7.70;99.90
25504;DHT22;13410;52.114;5.718;2023-01-19T04:43:15;7.60;99.90
25504;DHT22;13410;52.114;5.718;2023-01-19T04:45:40;7.60;99.90
25504;DHT22;13410;52.114;5.718;2023-01-19T04:48:08;7.30;99.90
25504;DHT22;13410;52.114;5.718;2023-01-19T04:50:33;7.40;99.90
25504;DHT22;13410;52.114;5.718;2023-01-19T04:52:59;7.20;99.90
25504;DHT22;13410;52.114;5.718;2023-01-19T04:55:25;7.10;99.90
25504;DHT22;13410;52.114;5.718;2023-01-19T04:57:50;7.40;99.90
25504;DHT22;13410;52.114;5.718;2023-01-19T05:00:16;7.50;99.90
25504;DHT22;13410;52.114;5.718;2023-01-19T05:02:42;7.40;99.90
25504;DHT22;13410;52.114;5.718;2023-01-19T05:05:10;7.50;99.90
25504;DHT22;13410;52.114;5.718;2023-01-19T05:07:36;7.40;99.90
25504;DHT22;13410;52.114;5.718;2023-01-19T05:10:02;7.50;99.90
25504;DHT22;13410;52.114;5.718;2023-01-19T05:12:27;7.30;99.90
25504;DHT22;13410;52.114;5.718;2023-01-19T05:14:53;7.40;99.90
25504;DHT22;13410;52.114;5.718;2023-01-19T05:17:18;7.40;99.90
25504;DHT22;13410;52.114;5.718;2023-01-19T05:19:44;7.30;99.90
25504;DHT22;13410;52.114;5.718;2023-01-19T05:22:10;7.40;99.90
25504;DHT22;13410;52.114;5.718;2023-01-19T05:24:35;7.20;99.90
25504;DHT22;13410;52.114;5.718;2023-01-19T05:27:01;7.10;99.90
25504;DHT22;13410;52.114;5.718;2023-01-19T05:29:26;7.20;99.90
25504;DHT22;13410;52.114;5.718;2023-01-19T05:31:52;7.20;99.90
25504;DHT22;13410;52.114;5.718;2023-01-19T05:34:17;7.20;99.90
25504;DHT22;13410;52.114;5.718;2023-01-19T05:36:43;7.20;99.90
25504;DHT22;13410;52.114;5.718;2023-01-19T05:39:09;7.10;99.90
25504;DHT22;13410;52.114;5.718;2023-01-19T05:41:34;7.10;99.90
25504;DHT22;13410;52.114;5.718;2023-01-19T05:44:00;7.00;99.90
25504;DHT22;13410;52.114;5.718;2023-01-19T05:46:26;7.00;99.90
25504;DHT22;13410;52.114;5.718;2023-01-19T05:48:51;7.00;99.90
25504;DHT22;13410;52.114;5.718;2023-01-19T05:51:17;6.90;99.90
25504;DHT22;13410;52.114;5.718;2023-01-19T05:53:42;7.00;99.90
25504;DHT22;13410;52.114;5.718;2023-01-19T05:56:09;6.90;99.90
25504;DHT22;13410;52.114;5.718;2023-01-19T05:58:37;6.80;99.90
25504;DHT22;13410;52.114;5.718;2023-01-19T06:01:07;6.80;99.90
25504;DHT22;13410;52.114;5.718;2023-01-19T06:03:33;6.90;99.90
25504;DHT22;13410;52.114;5.718;2023-01-19T06:06:00;7.00;99.90
25504;DHT22;13410;52.114;5.718;2023-01-19T06:08:26;6.90;99.90
25504;DHT22;13410;52.114;5.718;2023-01-19T06:10:52;6.80;99.90
25504;DHT22;13410;52.114;5.718;2023-01-19T06:13:17;6.90;99.90
25504;DHT22;13410;52.114;5.718;2023-01-19T06:15:43;6.90;99.90
25504;DHT22;13410;52.114;5.718;2023-01-19T06:18:09;6.90;99.90
25504;DHT22;13410;52.114;5.718;2023-01-19T06:20:35;7.00;99.90
25504;DHT22;13410;52.114;5.718;2023-01-19T06:23:01;7.10;99.90
25504;DHT22;13410;52.114;5.718;2023-01-19T06:25:27;7.20;99.90
25504;DHT22;13410;52.114;5.718;2023-01-19T06:27:52;7.00;99.90
25504;DHT22;13410;52.114;5.718;2023-01-19T06:30:18;7.10;99.90
25504;DHT22;13410;52.114;5.718;2023-01-19T06:32:43;7.10;99.90
25504;DHT22;13410;52.114;5.718;2023-01-19T06:35:09;7.10;99.90
25504;DHT22;13410;52.114;5.718;2023-01-19T06:37:35;7.20;99.90
25504;DHT22;13410;52.114;5.718;2023-01-19T06:40:01;7.20;99.90
25504;DHT22;13410;52.114;5.718;2023-01-19T06:42:27;7.20;99.90
25504;DHT22;13410;52.114;5.718;2023-01-19T06:44:52;7.20;99.90
25504;DHT22;13410;52.114;5.718;2023-01-19T06:47:18;7.30;99.90
25504;DHT22;13410;52.114;5.718;2023-01-19T06:49:44;7.20;99.90
25504;DHT22;13410;52.114;5.718;2023-01-19T06:52:10;7.30;99.90
25504;DHT22;13410;52.114;5.718;2023-01-19T06:54:36;7.20;99.90
25504;DHT22;13410;52.114;5.718;2023-01-19T06:57:03;7.20;99.90
25504;DHT22;13410;52.114;5.718;2023-01-19T06:59:28;7.30;99.90
25504;DHT22;13410;52.114;5.718;2023-01-19T07:01:54;7.30;99.90
25504;DHT22;13410;52.114;5.718;2023-01-19T07:04:20;7.20;99.90
25504;DHT22;13410;52.114;5.718;2023-01-19T07:06:46;7.00;99.90
25504;DHT22;13410;52.114;5.718;2023-01-19T07:09:11;7.10;99.90
25504;DHT22;13410;52.114;5.718;2023-01-19T07:11:38;7.20;99.90
25504;DHT22;13410;52.114;5.718;2023-01-19T07:14:03;7.30;99.90
25504;DHT22;13410;52.114;5.718;2023-01-19T07:16:30;7.40;99.90
25504;DHT22;13410;52.114;5.718;2023-01-19T07:18:55;7.50;99.90
25504;DHT22;13410;52.114;5.718;2023-01-19T07:21:21;7.50;99.90
25504;DHT22;13410;52.114;5.718;2023-01-19T07:23:48;7.70;99.90
25504;DHT22;13410;52.114;5.718;2023-01-19T07:26:13;7.80;99.90
25504;DHT22;13410;52.114;5.718;2023-01-19T07:28:42;7.90;99.90
25504;DHT22;13410;52.114;5.718;2023-01-19T07:31:08;8.00;99.90
25504;DHT22;13410;52.114;5.718;2023-01-19T07:33:34;7.90;99.90
25504;DHT22;13410;52.114;5.718;2023-01-19T07:36:00;8.00;99.90
25504;DHT22;13410;52.114;5.718;2023-01-19T07:38:25;8.00;99.90
25504;DHT22;13410;52.114;5.718;2023-01-19T07:40:51;8.10;99.90
25504;DHT22;13410;52.114;5.718;2023-01-19T07:43:23;8.30;99.90
25504;DHT22;13410;52.114;5.718;2023-01-19T07:45:49;8.30;99.90
25504;DHT22;13410;52.114;5.718;2023-01-19T07:48:14;8.30;99.90
25504;DHT22;13410;52.114;5.718;2023-01-19T07:50:40;8.40;99.90
25504;DHT22;13410;52.114;5.718;2023-01-19T07:53:07;8.40;99.90
25504;DHT22;13410;52.114;5.718;2023-01-19T07:55:33;8.60;99.90
25504;DHT22;13410;52.114;5.718;2023-01-19T07:57:59;8.40;99.90
25504;DHT22;13410;52.114;5.718;2023-01-19T08:00:25;8.50;99.90
25504;DHT22;13410;52.114;5.718;2023-01-19T08:02:51;8.40;99.90
25504;DHT22;13410;52.114;5.718;2023-01-19T08:05:18;8.40;99.90
25504;DHT22;13410;52.114;5.718;2023-01-19T08:07:43;8.30;99.90
25504;DHT22;13410;52.114;5.718;2023-01-19T08:10:12;8.30;99.90
25504;DHT22;13410;52.114;5.718;2023-01-19T08:12:38;8.40;99.90
25504;DHT22;13410;52.114;5.718;2023-01-19T08:15:05;8.30;99.90
25504;DHT22;13410;52.114;5.718;2023-01-19T08:17:30;8.30;99.90
25504;DHT22;13410;52.114;5.718;2023-01-19T08:19:56;8.30;99.90
25504;DHT22;13410;52.114;5.718;2023-01-19T08:22:22;8.20;99.90
25504;DHT22;13410;52.114;5.718;2023-01-19T08:24:47;8.30;99.90
25504;DHT22;13410;52.114;5.718;2023-01-19T08:27:13;8.30;99.90
25504;DHT22;13410;52.114;5.718;2023-01-19T08:29:38;8.20;99.90
25504;DHT22;13410;52.114;5.718;2023-01-19T08:32:05;8.20;99.90
25504;DHT22;13410;52.114;5.718;2023-01-19T08:34:31;8.20;99.90
25504;DHT22;13410;52.114;5.718;2023-01-19T08:36:56;8.40;99.90
25504;DHT22;13410;52.114;5.718;2023-01-19T08:39:22;8.20;99.90
25504;DHT22;13410;52.114;5.718;2023-01-19T08:41:52;8.30;99.90
25504;DHT22;13410;52.114;5.718;2023-01-19T08:44:20;8.20;99.90
25504;DHT22;13410;52.114;5.718;2023-01-19T08:46:46;8.10;99.90
25504;DHT22;13410;52.114;5.718;2023-01-19T08:49:11;8.10;99.90
25504;DHT22;13410;52.114;5.718;2023-01-19T08:51:37;8.20;99.90
25504;DHT22;13410;52.114;5.718;2023-01-19T08:54:03;8.10;99.90
25504;DHT22;13410;52.114;5.718;2023-01-19T08:56:28;8.10;99.90
25504;DHT22;13410;52.114;5.718;2023-01-19T08:58:54;8.30;99.90
25504;DHT22;13410;52.114;5.718;2023-01-19T09:01:20;8.30;99.90
25504;DHT22;13410;52.114;5.718;2023-01-19T09:03:46;8.30;99.90
25504;DHT22;13410;52.114;5.718;2023-01-19T09:06:14;8.20;99.90
25504;DHT22;13410;52.114;5.718;2023-01-19T09:08:41;8.20;99.90
25504;DHT22;13410;52.114;5.718;2023-01-19T09:11:12;8.20;99.90
25504;DHT22;13410;52.114;5.718;2023-01-19T09:13:39;8.20;99.90
25504;DHT22;13410;52.114;5.718;2023-01-19T09:16:06;8.20;99.90
25504;DHT22;13410;52.114;5.718;2023-01-19T09:18:33;8.40;99.90
25504;DHT22;13410;52.114;5.718;2023-01-19T09:21:00;8.30;99.90
25504;DHT22;13410;52.114;5.718;2023-01-19T09:23:26;8.40;99.90
25504;DHT22;13410;52.114;5.718;2023-01-19T09:25:57;8.50;99.90
25504;DHT22;13410;52.114;5.718;2023-01-19T09:28:24;8.40;99.90
25504;DHT22;13410;52.114;5.718;2023-01-19T09:30:49;8.40;99.90
25504;DHT22;13410;52.114;5.718;2023-01-19T09:33:17;8.50;99.90
25504;DHT22;13410;52.114;5.718;2023-01-19T09:35:44;8.50;99.90
25504;DHT22;13410;52.114;5.718;2023-01-19T09:38:10;8.50;99.90
25504;DHT22;13410;52.114;5.718;2023-01-19T09:40:40;8.40;99.90
25504;DHT22;13410;52.114;5.718;2023-01-19T09:43:25;8.40;99.90
25504;DHT22;13410;52.114;5.718;2023-01-19T09:46:00;8.50;99.90
25504;DHT22;13410;52.114;5.718;2023-01-19T09:51:06;8.60;99.90
25504;DHT22;13410;52.114;5.718;2023-01-19T09:53:53;8.70;99.90
25504;DHT22;13410;52.114;5.718;2023-01-19T09:56:21;8.70;99.90
25504;DHT22;13410;52.114;5.718;2023-01-19T09:58:51;8.80;99.90
25504;DHT22;13410;52.114;5.718;2023-01-19T10:06:38;9.20;99.90
25504;DHT22;13410;52.114;5.718;2023-01-19T10:09:17;9.20;99.90
25504;DHT22;13410;52.114;5.718;2023-01-19T10:12:09;9.30;99.90
25504;DHT22;13410;52.114;5.718;2023-01-19T10:20:35;9.40;99.90
25504;DHT22;13410;52.114;5.718;2023-01-19T10:23:12;9.30;99.90
25504;DHT22;13410;52.114;5.718;2023-01-19T10:25:41;9.30;99.90
25504;DHT22;13410;52.114;5.718;2023-01-19T10:28:07;9.40;99.90
25504;DHT22;13410;52.114;5.718;2023-01-19T10:30:34;9.50;99.90
25504;DHT22;13410;52.114;5.718;2023-01-19T10:33:00;9.50;99.90
25504;DHT22;13410;52.114;5.718;2023-01-19T10:35:25;9.60;99.90
25504;DHT22;13410;52.114;5.718;2023-01-19T10:37:54;9.70;99.90
25504;DHT22;13410;52.114;5.718;2023-01-19T10:40:38;9.70;99.90
25504;DHT22;13410;52.114;5.718;2023-01-19T10:43:28;9.80;99.90
25504;DHT22;13410;52.114;5.718;2023-01-19T10:46:21;9.90;99.90
25504;DHT22;13410;52.114;5.718;2023-01-19T10:48:48;9.80;99.90
25504;DHT22;13410;52.114;5.718;2023-01-19T10:51:14;9.90;99.90
25504;DHT22;13410;52.114;5.718;2023-01-19T10:53:44;9.90;99.90
25504;DHT22;13410;52.114;5.718;2023-01-19T10:56:26;9.80;99.90
25504;DHT22;13410;52.114;5.718;2023-01-19T10:58:53;9.70;99.90
25504;DHT22;13410;52.114;5.718;2023-01-19T11:01:20;9.70;99.90
25504;DHT22;13410;52.114;5.718;2023-01-19T11:03:46;9.60;99.90
25504;DHT22;13410;52.114;5.718;2023-01-19T11:06:20;9.50;99.90
25504;DHT22;13410;52.114;5.718;2023-01-19T11:08:47;9.60;99.90
25504;DHT22;13410;52.114;5.718;2023-01-19T11:11:17;9.80;99.90
25504;DHT22;13410;52.114;5.718;2023-01-19T11:13:43;9.80;99.90
25504;DHT22;13410;52.114;5.718;2023-01-19T11:16:25;9.90;99.90
25504;DHT22;13410;52.114;5.718;2023-01-19T11:18:53;10.00;99.90
25504;DHT22;13410;52.114;5.718;2023-01-19T11:21:22;10.10;99.90
25504;DHT22;13410;52.114;5.718;2023-01-19T11:23:54;10.10;99.90
25504;DHT22;13410;52.114;5.718;2023-01-19T11:28:54;10.30;99.90
25504;DHT22;13410;52.114;5.718;2023-01-19T11:34:00;10.40;99.90
25504;DHT22;13410;52.114;5.718;2023-01-19T11:36:35;10.50;99.90
25504;DHT22;13410;52.114;5.718;2023-01-19T11:39:19;10.50;99.90
25504;DHT22;13410;52.114;5.718;2023-01-19T11:41:51;10.50;99.90
25504;DHT22;13410;52.114;5.718;2023-01-19T11:44:21;10.50;99.90
25504;DHT22;13410;52.114;5.718;2023-01-19T11:46:52;10.60;99.90
25504;DHT22;13410;52.114;5.718;2023-01-19T11:49:30;10.70;99.90
25504;DHT22;13410;52.114;5.718;2023-01-19T11:52:03;10.70;99.90
25504;DHT22;13410;52.114;5.718;2023-01-19T11:54:34;10.60;99.90
25504;DHT22;13410;52.114;5.718;2023-01-19T11:57:09;10.70;99.90
25504;DHT22;13410;52.114;5.718;2023-01-19T11:59:36;10.50;99.90
25504;DHT22;13410;52.114;5.718;2023-01-19T12:02:16;10.60;99.90
25504;DHT22;13410;52.114;5.718;2023-01-19T12:04:44;10.70;99.90
25504;DHT22;13410;52.114;5.718;2023-01-19T12:07:11;10.60;99.90
25504;DHT22;13410;52.114;5.718;2023-01-19T12:09:43;10.50;99.90
25504;DHT22;13410;52.114;5.718;2023-01-19T12:12:29;10.80;99.90
25504;DHT22;13410;52.114;5.718;2023-01-19T12:15:05;10.90;99.90
25504;DHT22;13410;52.114;5.718;2023-01-19T12:17:36;10.80;99.90
25504;DHT22;13410;52.114;5.718;2023-01-19T12:20:22;10.80;99.90
25504;DHT22;13410;52.114;5.718;2023-01-19T12:28:45;10.20;99.90
25504;DHT22;13410;52.114;5.718;2023-01-19T12:31:15;10.20;99.90
25504;DHT22;13410;52.114;5.718;2023-01-19T12:33:41;10.40;99.90
25504;DHT22;13410;52.114;5.718;2023-01-19T12:41:35;10.30;99.90
25504;DHT22;13410;52.114;5.718;2023-01-19T12:46:40;10.50;99.90
25504;DHT22;13410;52.114;5.718;2023-01-19T12:49:20;10.50;99.90
25504;DHT22;13410;52.114;5.718;2023-01-19T12:51:48;10.60;99.90
25504;DHT22;13410;52.114;5.718;2023-01-19T12:54:31;10.50;99.90
25504;DHT22;13410;52.114;5.718;2023-01-19T12:57:06;10.50;99.90
25504;DHT22;13410;52.114;5.718;2023-01-19T12:59:35;10.40;99.90
25504;DHT22;13410;52.114;5.718;2023-01-19T13:05:15;10.10;99.90
25504;DHT22;13410;52.114;5.718;2023-01-19T13:18:40;9.80;99.90
25504;DHT22;13410;52.114;5.718;2023-01-19T13:21:08;9.70;99.90
25504;DHT22;13410;52.114;5.718;2023-01-19T13:26:23;10.00;99.90
25504;DHT22;13410;52.114;5.718;2023-01-19T13:28:52;10.10;99.90
25504;DHT22;13410;52.114;5.718;2023-01-19T13:31:19;10.20;99.90
25504;DHT22;13410;52.114;5.718;2023-01-19T13:33:54;10.30;99.90
25504;DHT22;13410;52.114;5.718;2023-01-19T13:36:37;10.50;99.90
25504;DHT22;13410;52.114;5.718;2023-01-19T13:39:11;10.60;99.90
25504;DHT22;13410;52.114;5.718;2023-01-19T13:41:38;10.80;99.90
25504;DHT22;13410;52.114;5.718;2023-01-19T13:46:37;10.90;99.90
25504;DHT22;13410;52.114;5.718;2023-01-19T13:49:11;10.90;99.90
25504;DHT22;13410;52.114;5.718;2023-01-19T13:51:38;11.10;99.90
25504;DHT22;13410;52.114;5.718;2023-01-19T13:54:04;11.00;99.90
25504;DHT22;13410;52.114;5.718;2023-01-19T13:56:30;10.70;99.90
25504;DHT22;13410;52.114;5.718;2023-01-19T13:59:02;10.60;99.90
25504;DHT22;13410;52.114;5.718;2023-01-19T14:01:30;10.40;99.90
25504;DHT22;13410;52.114;5.718;2023-01-19T14:03:57;10.20;99.90
25504;DHT22;13410;52.114;5.718;2023-01-19T14:06:38;10.10;99.90
25504;DHT22;13410;52.114;5.718;2023-01-19T14:09:18;10.30;99.90
25504;DHT22;13410;52.114;5.718;2023-01-19T14:11:46;10.50;99.90
25504;DHT22;13410;52.114;5.718;2023-01-19T14:14:23;10.50;99.90
25504;DHT22;13410;52.114;5.718;2023-01-19T14:16:49;10.80;99.90
25504;DHT22;13410;52.114;5.718;2023-01-19T14:19:15;10.70;99.90
25504;DHT22;13410;52.114;5.718;2023-01-19T14:21:41;10.70;99.90
25504;DHT22;13410;52.114;5.718;2023-01-19T14:24:18;10.70;99.90
25504;DHT22;13410;52.114;5.718;2023-01-19T14:26:47;10.70;99.90
25504;DHT22;13410;52.114;5.718;2023-01-19T14:29:29;10.70;99.90
25504;DHT22;13410;52.114;5.718;2023-01-19T14:32:15;10.60;99.90
25504;DHT22;13410;52.114;5.718;2023-01-19T14:35:25;10.30;99.90
25504;DHT22;13410;52.114;5.718;2023-01-19T14:37:35;10.20;99.90
25504;DHT22;13410;52.114;5.718;2023-01-19T14:42:44;10.10;99.90
25504;DHT22;13410;52.114;5.718;2023-01-19T14:45:22;10.00;99.90
25504;DHT22;13410;52.114;5.718;2023-01-19T14:47:57;10.10;99.90
25504;DHT22;13410;52.114;5.718;2023-01-19T14:50:30;10.00;99.90
25504;DHT22;13410;52.114;5.718;2023-01-19T14:53:04;10.10;99.90
25504;DHT22;13410;52.114;5.718;2023-01-19T14:55:32;9.90;99.90
25504;DHT22;13410;52.114;5.718;2023-01-19T14:57:59;9.90;99.90
25504;DHT22;13410;52.114;5.718;2023-01-19T15:00:25;10.00;99.90
25504;DHT22;13410;52.114;5.718;2023-01-19T15:02:51;10.00;99.90
25504;DHT22;13410;52.114;5.718;2023-01-19T15:05:17;9.90;99.90
25504;DHT22;13410;52.114;5.718;2023-01-19T15:07:44;10.00;99.90
25504;DHT22;13410;52.114;5.718;2023-01-19T15:10:29;10.00;99.90
25504;DHT22;13410;52.114;5.718;2023-01-19T15:12:55;9.90;99.90
25504;DHT22;13410;52.114;5.718;2023-01-19T15:15:32;9.70;99.90
25504;DHT22;13410;52.114;5.718;2023-01-19T15:17:59;9.80;99.90
25504;DHT22;13410;52.114;5.718;2023-01-19T15:20:25;9.70;99.90
25504;DHT22;13410;52.114;5.718;2023-01-19T15:22:51;9.80;99.90
25504;DHT22;13410;52.114;5.718;2023-01-19T15:25:19;9.60;99.90
25504;DHT22;13410;52.114;5.718;2023-01-19T15:27:46;9.50;99.90
25504;DHT22;13410;52.114;5.718;2023-01-19T15:30:25;9.50;99.90
25504;DHT22;13410;52.114;5.718;2023-01-19T15:32:55;9.40;99.90
25504;DHT22;13410;52.114;5.718;2023-01-19T15:35:22;9.40;99.90
25504;DHT22;13410;52.114;5.718;2023-01-19T15:37:49;9.30;99.90
25504;DHT22;13410;52.114;5.718;2023-01-19T15:40:17;9.30;99.90
25504;DHT22;13410;52.114;5.718;2023-01-19T15:42:42;9.40;99.90
25504;DHT22;13410;52.114;5.718;2023-01-19T15:47:57;9.20;99.90
25504;DHT22;13410;52.114;5.718;2023-01-19T15:50:24;9.10;99.90
25504;DHT22;13410;52.114;5.718;2023-01-19T15:52:50;9.10;99.90
25504;DHT22;13410;52.114;5.718;2023-01-19T15:55:17;9.00;99.90
25504;DHT22;13410;52.114;5.718;2023-01-19T15:57:42;9.10;99.90
25504;DHT22;13410;52.114;5.718;2023-01-19T16:00:10;9.00;99.90
25504;DHT22;13410;52.114;5.718;2023-01-19T16:02:36;8.90;99.90
25504;DHT22;13410;52.114;5.718;2023-01-19T16:05:01;8.80;99.90
25504;DHT22;13410;52.114;5.718;2023-01-19T16:07:27;8.80;99.90
25504;DHT22;13410;52.114;5.718;2023-01-19T16:09:52;8.70;99.90
25504;DHT22;13410;52.114;5.718;2023-01-19T16:12:18;8.70;99.90
25504;DHT22;13410;52.114;5.718;2023-01-19T16:14:44;8.60;99.90
25504;DHT22;13410;52.114;5.718;2023-01-19T16:17:09;8.60;99.90
25504;DHT22;13410;52.114;5.718;2023-01-19T16:19:35;8.50;99.90
25504;DHT22;13410;52.114;5.718;2023-01-19T16:22:00;8.50;99.90
25504;DHT22;13410;52.114;5.718;2023-01-19T16:24:27;8.40;99.90
25504;DHT22;13410;52.114;5.718;2023-01-19T16:26:52;8.40;99.90
25504;DHT22;13410;52.114;5.718;2023-01-19T16:29:19;8.40;99.90
25504;DHT22;13410;52.114;5.718;2023-01-19T16:31:45;8.30;99.90
25504;DHT22;13410;52.114;5.718;2023-01-19T16:34:11;8.30;99.90
25504;DHT22;13410;52.114;5.718;2023-01-19T16:36:38;8.10;99.90
25504;DHT22;13410;52.114;5.718;2023-01-19T16:39:13;8.10;99.90
25504;DHT22;13410;52.114;5.718;2023-01-19T16:41:39;8.00;99.90
25504;DHT22;13410;52.114;5.718;2023-01-19T16:44:05;7.90;99.90
25504;DHT22;13410;52.114;5.718;2023-01-19T16:46:34;7.80;99.90
25504;DHT22;13410;52.114;5.718;2023-01-19T16:49:02;7.80;99.90
25504;DHT22;13410;52.114;5.718;2023-01-19T16:51:29;7.70;99.90
25504;DHT22;13410;52.114;5.718;2023-01-19T16:53:54;7.60;99.90
25504;DHT22;13410;52.114;5.718;2023-01-19T16:56:20;7.60;99.90
25504;DHT22;13410;52.114;5.718;2023-01-19T16:58:46;7.60;99.90